Time;durP1;ratioP1;P1;durP2;ratioP2;P2;SDS_P1;SDS_P2;PMS_P1;PMS_P2;Temp;Humidity;BMP_temperature;BMP_pressure;BME280_temperature;BME280_humidity;BME280_pressure;Samples;Min_cycle;Max_cycle;Signal;HPM_P1;HPM_P2
2023/12/27 00:00:28;;;;;;;3.60;0.40;;;;;;;6.47;80.86;100349.45;111569;1263;22096;-72
2023/12/27 00:03:51;;;;;;;5.80;0.40;;;;;;;6.40;81.29;100355.33;111574;1266;22153;-72
2023/12/27 00:06:40;;;;;;;;;;;;;;;6.35;81.68;100358.66;111580;1266;23082;-72
2023/12/27 00:09:31;;;;;;;0.60;0.10;;;;;;;6.29;82.36;100367.68;111599;1262;22295;-74
2023/12/27 00:12:20;;;;;;;;;;;;;;;6.19;82.59;100367.54;111561;1263;22977;-72
2023/12/27 00:15:13;;;;;;;0.60;0.10;;;;;;;6.10;83.21;100368.70;111574;1263;22976;-71
2023/12/27 00:18:04;;;;;;;1.70;0.10;;;;;;;6.00;83.51;100363.08;111708;1261;22075;-72
2023/12/27 00:20:55;;;;;;;0.50;0.00;;;;;;;5.91;83.80;100366.77;111636;1263;22564;-72
2023/12/27 00:23:46;;;;;;;1.20;0.10;;;;;;;5.87;83.73;100368.49;111675;1261;23187;-71
2023/12/27 00:26:36;;;;;;;3.80;0.20;;;;;;;5.83;84.03;100384.29;111760;1265;22261;-71
2023/12/27 00:29:27;;;;;;;3.10;0.10;;;;;;;5.79;84.11;100395.39;111660;1263;23001;-71
2023/12/27 00:32:18;;;;;;;1.00;0.10;;;;;;;5.75;84.12;100399.29;111648;1263;22084;-71
2023/12/27 00:35:10;;;;;;;1.40;0.20;;;;;;;5.72;84.08;100401.91;111695;1260;23414;-73
2023/12/27 00:38:00;;;;;;;1.70;0.20;;;;;;;5.72;84.38;100409.70;111584;1266;22229;-73
2023/12/27 00:40:51;;;;;;;1.70;0.10;;;;;;;5.72;84.31;100411.35;111403;1260;22780;-72
2023/12/27 00:43:43;;;;;;;3.10;0.20;;;;;;;5.71;84.23;100411.28;111414;1261;22196;-72
2023/12/27 00:46:35;;;;;;;3.60;0.10;;;;;;;5.69;84.14;100419.41;111581;1263;22232;-72
2023/12/27 00:49:26;;;;;;;0.50;0.10;;;;;;;5.66;83.94;100425.29;111730;1266;23158;-72
2023/12/27 00:52:15;;;;;;;;;;;;;;;5.64;83.95;100429.39;111764;1266;22309;-71
2023/12/27 00:55:20;;;;;;;1.50;0.10;;;;;;;5.59;83.86;100437.05;111561;1259;22288;-72
2023/12/27 00:58:09;;;;;;;;;;;;;;;5.56;83.79;100444.90;111596;1258;24229;-73
2023/12/27 01:01:00;;;;;;;2.20;0.20;;;;;;;5.54;83.88;100453.58;111458;1267;22090;-72
2023/12/27 01:03:51;;;;;;;2.70;0.20;;;;;;;5.53;83.91;100462.70;111449;1267;22300;-72
2023/12/27 01:06:42;;;;;;;2.20;0.20;;;;;;;5.54;83.61;100471.32;111579;1266;22837;-72
2023/12/27 01:09:33;;;;;;;0.90;0.10;;;;;;;5.54;83.71;100479.39;111587;1260;22270;-72
2023/12/27 01:12:24;;;;;;;0.80;0.10;;;;;;;5.53;83.63;100480.98;111565;1263;22108;-72
2023/12/27 01:15:15;;;;;;;2.20;0.20;;;;;;;5.53;83.51;100486.54;111595;1261;22345;-72
2023/12/27 01:18:04;;;;;;;;;;;;;;;5.51;83.50;100490.92;111740;1261;22449;-72
2023/12/27 01:20:54;;;;;;;1.30;0.10;;;;;;;5.47;83.51;100490.73;111723;1260;22805;-71
2023/12/27 01:23:45;;;;;;;1.80;0.10;;;;;;;5.44;83.33;100491.45;111672;1263;22975;-72
2023/12/27 01:26:36;;;;;;;4.90;0.40;;;;;;;5.39;83.26;100497.19;111526;1266;22391;-73
2023/12/27 01:29:27;;;;;;;1.30;0.20;;;;;;;5.38;83.39;100503.80;111486;1263;22158;-72
2023/12/27 01:32:17;;;;;;;0.90;0.10;;;;;;;5.35;83.22;100510.92;111556;1263;22261;-73
2023/12/27 01:35:08;;;;;;;0.90;0.10;;;;;;;5.30;83.15;100514.00;111634;1257;23512;-71
2023/12/27 01:37:59;;;;;;;1.30;0.30;;;;;;;5.23;83.11;100519.94;111697;1263;22788;-72
2023/12/27 01:40:53;;;;;;;2.40;0.20;;;;;;;5.18;83.08;100523.08;111562;1263;22337;-72
2023/12/27 01:43:44;;;;;;;2.10;0.30;;;;;;;5.13;83.15;100528.35;111569;1263;22936;-72
2023/12/27 01:46:35;;;;;;;2.50;0.40;;;;;;;5.08;83.11;100530.91;111467;1266;22884;-72
2023/12/27 01:49:27;;;;;;;7.60;0.60;;;;;;;5.05;83.21;100534.89;111553;1260;22336;-71
2023/12/27 01:52:18;;;;;;;7.00;0.70;;;;;;;5.01;83.22;100542.98;111747;1266;22335;-73
2023/12/27 01:55:10;;;;;;;5.30;0.50;;;;;;;4.94;83.02;100543.55;111725;1264;22206;-73
2023/12/27 01:58:01;;;;;;;4.20;0.20;;;;;;;4.88;82.96;100550.66;111608;1266;22128;-72
2023/12/27 02:00:50;;;;;;;;;;;;;;;4.84;82.79;100551.95;111769;1266;22806;-72
2023/12/27 02:03:43;;;;;;;3.40;0.30;;;;;;;4.80;82.85;100557.09;111458;1267;22146;-72
2023/12/27 02:06:35;;;;;;;3.90;0.30;;;;;;;4.78;82.84;100559.11;111570;1267;22360;-72
2023/12/27 02:09:25;;;;;;;6.90;0.30;;;;;;;4.77;82.89;100559.06;111563;1263;22083;-72
2023/12/27 02:12:27;;;;;;;6.00;0.30;;;;;;;4.75;83.04;100559.04;111730;1257;22124;-72
2023/12/27 02:15:18;;;;;;;4.00;0.30;;;;;;;4.72;83.08;100563.15;111733;1260;22159;-72
2023/12/27 02:18:11;;;;;;;5.00;0.30;;;;;;;4.69;82.95;100567.40;111408;1266;22956;-71
2023/12/27 02:21:01;;;;;;;3.50;0.30;;;;;;;4.64;83.02;100568.47;111557;1261;22915;-72
2023/12/27 02:23:55;;;;;;;3.40;0.60;;;;;;;4.59;83.15;100572.92;111576;1263;22292;-72
2023/12/27 02:26:46;;;;;;;6.30;0.70;;;;;;;4.56;83.26;100576.09;111644;1266;22146;-72
2023/12/27 02:29:38;;;;;;;2.10;0.30;;;;;;;4.53;83.52;100578.36;111708;1263;22062;-73
2023/12/27 02:32:28;;;;;;;3.40;0.40;;;;;;;4.50;83.59;100584.91;111713;1263;22095;-72
2023/12/27 02:35:19;;;;;;;2.90;0.50;;;;;;;4.47;83.68;100582.45;111529;1267;22997;-72
2023/12/27 02:38:10;;;;;;;8.10;0.40;;;;;;;4.44;83.64;100588.93;111623;1263;22344;-73
2023/12/27 02:41:02;;;;;;;5.50;0.40;;;;;;;4.40;83.65;100597.30;111699;1260;22211;-72
2023/12/27 02:43:52;;;;;;;7.50;0.50;;;;;;;4.35;83.75;100602.38;111619;1266;22062;-71
2023/12/27 02:46:43;;;;;;;7.60;0.70;;;;;;;4.32;83.93;100611.30;111696;1263;22407;-72
2023/12/27 02:49:34;;;;;;;4.80;0.50;;;;;;;4.28;83.94;100613.50;111465;1260;22906;-73
2023/12/27 02:52:25;;;;;;;4.90;0.30;;;;;;;4.25;84.00;100615.48;111574;1261;22299;-74
2023/12/27 02:55:16;;;;;;;5.00;0.40;;;;;;;4.23;84.06;100624.36;111456;1261;22312;-71
2023/12/27 02:58:07;;;;;;;5.20;0.40;;;;;;;4.20;84.08;100625.60;111583;1260;22136;-72
2023/12/27 03:00:58;;;;;;;8.10;0.70;;;;;;;4.17;84.25;100628.50;111555;1266;22152;-71
2023/12/27 03:03:47;;;;;;;;;;;;;;;4.16;84.54;100628.13;111584;1266;22703;-73
2023/12/27 03:06:38;;;;;;;3.90;0.50;;;;;;;4.15;84.60;100632.73;111546;1266;22171;-71
2023/12/27 03:09:28;;;;;;;4.80;0.30;;;;;;;4.15;84.65;100629.89;111579;1263;22555;-72
2023/12/27 03:12:20;;;;;;;10.90;0.40;;;;;;;4.15;84.68;100632.02;111414;1266;23594;-73
2023/12/27 03:15:11;;;;;;;7.50;0.50;;;;;;;4.14;84.67;100633.21;111693;1263;22325;-72
2023/12/27 03:18:01;;;;;;;6.50;0.50;;;;;;;4.13;84.52;100634.98;111717;1266;22351;-71
2023/12/27 03:20:52;;;;;;;6.00;0.30;;;;;;;4.12;84.67;100641.16;111587;1263;22155;-72
2023/12/27 03:23:43;;;;;;;5.20;0.30;;;;;;;4.12;84.60;100642.58;111480;1266;22153;-71
2023/12/27 03:26:34;;;;;;;3.60;0.40;;;;;;;4.10;84.39;100643.17;111645;1266;22137;-72
2023/12/27 03:29:25;;;;;;;4.10;0.50;;;;;;;4.08;84.42;100647.01;111582;1257;22117;-72
2023/12/27 03:32:15;;;;;;;2.90;0.20;;;;;;;4.07;84.33;100651.12;111565;1264;22138;-72
2023/12/27 03:35:07;;;;;;;8.70;0.40;;;;;;;4.05;84.32;100651.08;111449;1260;22684;-73
2023/12/27 03:37:58;;;;;;;4.20;0.30;;;;;;;4.03;84.24;100659.32;111670;1263;22137;-71
2023/12/27 03:40:47;;;;;;;;;;;;;;;4.01;84.16;100662.69;111611;1257;23030;-71
2023/12/27 03:43:38;;;;;;;2.50;0.30;;;;;;;3.97;84.33;100667.33;111722;1262;22127;-71
2023/12/27 03:46:27;;;;;;;;;;;;;;;3.94;84.28;100672.52;111603;1260;22434;-72
2023/12/27 03:49:17;;;;;;;7.50;0.40;;;;;;;3.92;84.29;100675.27;111573;1266;23137;-72
2023/12/27 03:52:08;;;;;;;5.00;0.70;;;;;;;3.88;84.35;100672.80;111575;1266;22137;-73
2023/12/27 03:54:59;;;;;;;4.60;0.30;;;;;;;3.86;84.36;100671.90;111587;1267;22213;-72
2023/12/27 03:57:50;;;;;;;7.30;0.60;;;;;;;3.83;84.24;100671.07;111586;1267;22151;-71
2023/12/27 04:00:39;;;;;;;;;;;;;;;3.82;84.17;100671.42;111578;1267;22211;-73
2023/12/27 04:03:31;;;;;;;6.00;0.40;;;;;;;3.78;84.16;100673.06;111423;1263;22362;-72
2023/12/27 04:06:22;;;;;;;6.70;0.40;;;;;;;3.77;84.16;100678.92;111556;1263;22178;-72
2023/12/27 04:09:13;;;;;;;8.30;0.80;;;;;;;3.76;84.21;100671.92;111681;1264;22095;-72
2023/12/27 04:12:04;;;;;;;4.60;0.50;;;;;;;3.75;84.11;100673.52;111601;1266;22865;-71
2023/12/27 04:14:55;;;;;;;4.70;0.60;;;;;;;3.73;84.08;100681.59;111546;1256;22135;-72
2023/12/27 04:17:45;;;;;;;10.60;0.60;;;;;;;3.71;84.18;100688.27;111573;1263;22164;-72
2023/12/27 04:20:34;;;;;;;;;;;;;;;3.70;84.13;100691.52;111486;1265;22433;-73
2023/12/27 04:23:25;;;;;;;8.70;0.50;;;;;;;3.67;84.13;100694.41;111657;1263;22145;-71
2023/12/27 04:26:16;;;;;;;4.70;0.40;;;;;;;3.65;84.18;100695.86;111640;1264;23003;-73
2023/12/27 04:29:06;;;;;;;;;;;;;;;3.62;84.19;100696.08;111695;1254;23026;-72
2023/12/27 04:31:56;;;;;;;4.80;0.30;;;;;;;3.57;84.14;100692.86;111586;1266;22205;-71
2023/12/27 04:34:45;;;;;;;;;;;;;;;3.54;84.24;100698.42;111729;1266;22312;-72
2023/12/27 04:37:36;;;;;;;6.40;0.50;;;;;;;3.52;84.45;100704.61;111711;1263;22801;-72
2023/12/27 04:40:28;;;;;;;7.60;0.50;;;;;;;3.49;84.48;100712.31;111570;1260;22341;-72
2023/12/27 04:43:18;;;;;;;3.00;0.40;;;;;;;3.48;84.64;100719.81;111380;1266;22180;-72
2023/12/27 04:46:09;;;;;;;3.50;0.40;;;;;;;3.48;84.82;100720.30;111731;1254;22326;-72
2023/12/27 04:49:00;;;;;;;2.50;0.40;;;;;;;3.47;84.72;100725.90;111659;1266;22362;-71
2023/12/27 04:51:51;;;;;;;6.60;0.50;;;;;;;3.46;84.95;100730.19;111655;1266;22082;-71
2023/12/27 04:54:42;;;;;;;4.00;0.40;;;;;;;3.45;84.94;100730.91;111693;1266;22143;-71
2023/12/27 04:57:32;;;;;;;5.40;0.40;;;;;;;3.44;85.14;100736.75;111763;1266;22309;-72
2023/12/27 05:00:23;;;;;;;2.80;0.40;;;;;;;3.43;85.10;100740.33;111627;1260;22308;-72
2023/12/27 05:03:15;;;;;;;7.50;0.30;;;;;;;3.43;85.01;100743.56;111486;1260;22757;-72
2023/12/27 05:06:06;;;;;;;;;;;;;;;3.40;85.05;100749.75;111505;1265;22987;-75
2023/12/27 05:08:55;;;;;;;;;;;;;;;3.36;85.16;100748.31;111606;1260;22362;-71
2023/12/27 05:11:45;;;;;;;5.80;0.70;;;;;;;3.33;85.13;100752.47;111665;1261;22952;-71
2023/12/27 05:14:36;;;;;;;9.30;0.40;;;;;;;3.31;85.18;100752.82;111707;1263;22491;-73
2023/12/27 05:17:27;;;;;;;10.30;0.70;;;;;;;3.29;85.26;100765.61;111683;1266;22816;-72
2023/12/27 05:20:16;;;;;;;;;;;;;;;3.27;85.31;100770.52;111745;1266;22329;-71
2023/12/27 05:23:07;;;;;;;5.00;0.40;;;;;;;3.25;85.38;100775.52;111719;1257;22383;-72
2023/12/27 05:25:58;;;;;;;4.80;0.70;;;;;;;3.24;85.39;100779.02;111669;1263;22099;-71
2023/12/27 05:28:49;;;;;;;11.30;0.50;;;;;;;3.22;85.30;100792.98;111622;1263;22187;-72
2023/12/27 05:31:39;;;;;;;7.10;0.40;;;;;;;3.21;85.52;100794.58;111638;1263;22620;-72
2023/12/27 05:34:30;;;;;;;4.80;0.40;;;;;;;3.19;85.60;100797.20;111585;1260;22115;-71
2023/12/27 05:37:21;;;;;;;4.80;0.60;;;;;;;3.18;85.59;100793.68;111677;1260;22854;-72
2023/12/27 05:40:13;;;;;;;4.90;0.70;;;;;;;3.17;85.62;100793.38;108979;1266;22530;-71
2023/12/27 05:43:04;;;;;;;7.90;0.40;;;;;;;3.16;85.69;100793.32;108611;1266;23026;-72
2023/12/27 05:45:55;;;;;;;7.30;0.60;;;;;;;3.13;85.62;100792.80;108586;1266;23593;-71
2023/12/27 05:48:46;;;;;;;5.00;0.50;;;;;;;3.12;85.74;100791.88;108763;1263;24233;-71
2023/12/27 05:51:39;;;;;;;10.00;0.50;;;;;;;3.10;85.82;100791.02;108628;1267;25153;-71
2023/12/27 05:54:30;;;;;;;6.10;0.50;;;;;;;3.08;86.10;100793.58;108596;1263;22603;-71
2023/12/27 05:57:22;;;;;;;6.80;0.60;;;;;;;3.07;86.16;100791.23;108623;1260;22714;-71
2023/12/27 06:00:15;;;;;;;9.00;1.00;;;;;;;3.06;86.28;100798.41;108683;1266;22682;-71
2023/12/27 06:03:06;;;;;;;10.40;0.40;;;;;;;3.05;86.27;100796.46;111717;1266;23086;-72
2023/12/27 06:05:57;;;;;;;7.80;0.50;;;;;;;3.03;86.36;100795.85;111581;1263;22141;-71
2023/12/27 06:08:48;;;;;;;5.30;0.40;;;;;;;3.03;86.36;100800.02;111587;1263;23011;-71
2023/12/27 06:11:39;;;;;;;4.20;0.40;;;;;;;3.01;86.40;100799.74;111662;1266;22391;-71
2023/12/27 06:14:30;;;;;;;12.90;0.90;;;;;;;3.00;86.54;100806.38;111672;1263;22860;-71
2023/12/27 06:17:21;;;;;;;7.20;0.60;;;;;;;3.00;86.57;100810.02;111597;1263;22173;-73
2023/12/27 06:20:12;;;;;;;4.00;0.40;;;;;;;3.00;86.66;100814.02;111566;1267;22070;-71
2023/12/27 06:23:03;;;;;;;6.70;0.60;;;;;;;3.00;86.66;100814.58;111478;1266;22135;-71
2023/12/27 06:25:54;;;;;;;9.30;0.50;;;;;;;3.00;86.63;100818.13;111682;1264;22733;-71
2023/12/27 06:28:46;;;;;;;5.80;0.70;;;;;;;3.00;86.71;100821.75;111567;1266;123457;-72
2023/12/27 06:31:37;;;;;;;6.10;0.80;;;;;;;2.99;86.62;100823.96;111608;1267;22187;-71
2023/12/27 06:34:28;;;;;;;9.20;1.20;;;;;;;2.99;86.67;100826.80;111621;1266;22272;-71
2023/12/27 06:37:17;;;;;;;;;;;;;;;2.99;86.68;100828.22;111595;1266;22363;-71
2023/12/27 06:40:10;;;;;;;11.60;1.70;;;;;;;2.98;86.67;100831.08;111588;1258;22084;-73
2023/12/27 06:43:00;;;;;;;9.50;1.90;;;;;;;2.97;86.81;100834.55;111615;1267;22182;-72
2023/12/27 06:45:51;;;;;;;20.50;3.00;;;;;;;2.97;86.80;100842.83;111587;1266;22298;-72
2023/12/27 06:48:42;;;;;;;11.80;1.00;;;;;;;2.96;86.78;100843.55;111609;1266;22308;-71
2023/12/27 06:51:32;;;;;;;8.40;1.10;;;;;;;2.96;86.91;100842.45;111694;1264;22124;-71
2023/12/27 06:54:21;;;;;;;;;;;;;;;2.98;86.84;100848.26;111603;1261;22277;-71
2023/12/27 06:57:12;;;;;;;13.60;2.20;;;;;;;2.97;86.89;100855.04;111595;1267;22192;-71
2023/12/27 07:00:01;;;;;;;;;;;;;;;2.98;86.91;100856.92;111557;1266;22305;-71
2023/12/27 07:02:52;;;;;;;3.90;0.50;;;;;;;2.97;86.76;100864.58;111558;1257;22765;-72
2023/12/27 07:05:43;;;;;;;10.70;0.80;;;;;;;2.97;86.94;100874.98;111579;1263;22298;-71
2023/12/27 07:08:33;;;;;;;7.40;0.70;;;;;;;2.96;86.91;100882.70;111666;1266;22151;-71
2023/12/27 07:11:25;;;;;;;11.30;1.10;;;;;;;2.96;86.98;100895.85;111711;1265;22630;-71
2023/12/27 07:14:15;;;;;;;9.00;0.70;;;;;;;2.97;87.03;100900.27;111654;1266;22342;-71
2023/12/27 07:17:06;;;;;;;5.70;0.80;;;;;;;2.97;87.04;100906.80;111595;1260;22085;-72
2023/12/27 07:19:57;;;;;;;8.60;0.70;;;;;;;2.98;87.04;100907.98;111603;1267;22339;-71
2023/12/27 07:22:48;;;;;;;9.10;0.60;;;;;;;2.98;87.15;100911.45;111702;1261;22318;-71
2023/12/27 07:25:38;;;;;;;5.40;0.50;;;;;;;2.98;87.19;100915.70;111696;1261;22099;-72
2023/12/27 07:28:30;;;;;;;12.80;0.90;;;;;;;2.98;86.95;100917.77;111577;1266;22847;-72
2023/12/27 07:31:21;;;;;;;7.40;0.70;;;;;;;2.98;87.19;100922.09;111582;1260;22176;-72
2023/12/27 07:34:12;;;;;;;7.60;0.70;;;;;;;2.99;87.26;100926.41;111593;1260;23220;-73
2023/12/27 07:37:03;;;;;;;7.70;0.70;;;;;;;3.00;87.33;100930.48;111617;1265;22214;-72
2023/12/27 07:39:54;;;;;;;10.70;0.70;;;;;;;3.02;87.24;100939.94;111602;1266;22165;-71
2023/12/27 07:42:45;;;;;;;9.60;0.80;;;;;;;3.02;87.35;100943.95;111593;1266;22985;-72
2023/12/27 07:45:36;;;;;;;9.00;0.60;;;;;;;3.03;87.37;100949.13;111611;1266;22201;-71
2023/12/27 07:48:27;;;;;;;7.80;0.80;;;;;;;3.04;87.38;100949.21;111703;1265;22099;-73
2023/12/27 07:51:18;;;;;;;10.10;0.60;;;;;;;3.04;87.34;100952.10;111697;1263;22162;-72
2023/12/27 07:54:09;;;;;;;7.50;0.90;;;;;;;3.06;87.30;100953.45;111689;1264;22154;-72
2023/12/27 07:56:59;;;;;;;10.80;0.80;;;;;;;3.08;87.29;100962.16;111624;1260;22296;-72
2023/12/27 07:59:55;;;;;;;;;;;;;;;3.09;87.34;100958.77;111591;1266;22368;-72
2023/12/27 08:02:46;;;;;;;6.80;0.60;;;;;;;3.09;87.38;100961.69;111692;1266;22192;-72
2023/12/27 08:05:37;;;;;;;7.70;0.90;;;;;;;3.12;87.48;100968.20;111689;1264;22925;-72
2023/12/27 08:08:28;;;;;;;6.60;0.50;;;;;;;3.14;87.41;100971.33;111655;1263;22887;-72
2023/12/27 08:11:20;;;;;;;12.10;0.70;;;;;;;3.16;87.39;100976.90;111597;1260;22771;-72
2023/12/27 08:14:11;;;;;;;7.20;0.50;;;;;;;3.18;87.44;100983.02;111665;1263;22621;-72
2023/12/27 08:17:01;;;;;;;7.50;0.60;;;;;;;3.21;87.45;100983.08;111622;1264;22157;-72
2023/12/27 08:19:52;;;;;;;4.80;0.60;;;;;;;3.22;87.48;100991.80;111617;1265;22141;-72
2023/12/27 08:22:43;;;;;;;7.80;0.60;;;;;;;3.25;87.51;100995.73;111672;1266;22172;-72
2023/12/27 08:25:34;;;;;;;9.40;0.80;;;;;;;3.28;87.40;100997.10;111696;1260;22201;-72
2023/12/27 08:28:25;;;;;;;10.00;0.70;;;;;;;3.31;87.49;100996.44;111456;1266;22902;-72
2023/12/27 08:31:16;;;;;;;4.90;0.90;;;;;;;3.34;87.48;101000.83;111684;1260;22528;-72
2023/12/27 08:34:08;;;;;;;8.90;1.00;;;;;;;3.37;87.38;101008.04;111615;1261;22295;-74
2023/12/27 08:36:58;;;;;;;9.80;0.70;;;;;;;3.41;87.43;101015.02;111692;1265;22256;-72
2023/12/27 08:39:49;;;;;;;8.90;0.90;;;;;;;3.43;87.44;101019.02;111713;1265;22166;-72
2023/12/27 08:42:40;;;;;;;6.90;0.90;;;;;;;3.47;87.47;101023.30;111643;1263;22342;-73
2023/12/27 08:45:31;;;;;;;10.20;0.90;;;;;;;3.51;87.38;101028.08;111700;1257;22299;-72
2023/12/27 08:48:21;;;;;;;12.40;1.00;;;;;;;3.54;87.33;101035.36;111642;1263;22163;-72
2023/12/27 08:51:13;;;;;;;10.90;0.90;;;;;;;3.57;87.24;101035.98;111556;1264;23263;-72
2023/12/27 08:54:04;;;;;;;8.40;0.80;;;;;;;3.60;87.30;101040.04;111530;1260;22279;-73
2023/12/27 08:56:55;;;;;;;10.20;1.00;;;;;;;3.63;87.15;101047.56;111555;1261;22201;-72
2023/12/27 08:59:46;;;;;;;9.50;0.70;;;;;;;3.66;87.08;101053.84;111553;1260;22585;-73
2023/12/27 09:02:37;;;;;;;9.10;0.90;;;;;;;3.70;87.11;101047.89;111594;1263;23101;-72
2023/12/27 09:05:28;;;;;;;10.90;0.90;;;;;;;3.74;87.14;101045.16;111454;1261;22110;-71
2023/12/27 09:08:18;;;;;;;13.20;1.10;;;;;;;3.77;87.02;101048.50;111622;1261;22179;-72
2023/12/27 09:11:09;;;;;;;11.70;1.10;;;;;;;3.81;87.05;101052.64;111582;1258;22160;-72
2023/12/27 09:14:00;;;;;;;6.50;0.50;;;;;;;3.84;86.91;101056.86;111591;1260;22399;-72
2023/12/27 09:16:51;;;;;;;9.80;0.90;;;;;;;3.87;86.92;101053.11;111672;1260;22270;-73
2023/12/27 09:19:40;;;;;;;;;;;;;;;3.90;86.96;101047.95;111597;1261;23226;-71
2023/12/27 09:22:30;;;;;;;6.30;0.90;;;;;;;3.93;86.82;101054.14;111623;1260;22631;-72
2023/12/27 09:25:20;;;;;;;;;;;;;;;3.97;86.72;101059.70;111586;1260;23114;-72
2023/12/27 09:28:10;;;;;;;10.00;1.10;;;;;;;4.01;86.72;101060.91;111439;1265;22352;-74
2023/12/27 09:31:01;;;;;;;12.30;0.90;;;;;;;4.05;86.69;101060.54;111634;1266;22295;-72
2023/12/27 09:33:52;;;;;;;9.10;0.90;;;;;;;4.11;86.83;101059.67;111597;1263;22301;-72
2023/12/27 09:36:43;;;;;;;12.70;1.80;;;;;;;4.18;86.95;101054.75;111667;1263;22282;-72
2023/12/27 09:39:32;;;;;;;;;;;;;;;4.26;86.88;101053.79;111684;1266;23135;-73
2023/12/27 09:42:22;;;;;;;8.50;0.90;;;;;;;4.30;86.40;101054.42;111574;1260;22966;-72
2023/12/27 09:45:15;;;;;;;;;;;;;;;4.37;86.58;101053.15;111572;1260;22314;-72
2023/12/27 09:48:10;;;;;;;10.90;1.10;;;;;;;4.41;86.52;101052.52;111632;1260;22868;-72
2023/12/27 09:51:01;;;;;;;12.00;0.80;;;;;;;4.47;86.04;101048.27;111584;1261;22124;-72
2023/12/27 09:53:54;;;;;;;13.00;0.80;;;;;;;4.52;86.18;101049.75;111631;1263;22629;-73
2023/12/27 09:56:45;;;;;;;10.50;1.10;;;;;;;4.56;86.02;101052.14;111641;1264;22243;-73
2023/12/27 09:59:39;;;;;;;12.30;0.90;;;;;;;4.60;85.72;101049.71;111624;1263;22267;-72
2023/12/27 10:02:34;;;;;;;9.10;0.70;;;;;;;4.65;85.75;101054.14;111617;1260;22823;-72
2023/12/27 10:05:34;;;;;;;9.30;0.80;;;;;;;4.68;85.50;101053.86;111593;1254;22222;-72
2023/12/27 10:08:25;;;;;;;8.80;1.30;;;;;;;4.70;85.16;101048.61;111571;1259;22283;-73
2023/12/27 10:11:18;;;;;;;12.00;1.10;;;;;;;4.74;85.27;101046.24;111584;1264;22430;-72
2023/12/27 10:14:09;;;;;;;11.30;1.30;;;;;;;4.78;84.92;101046.41;111587;1263;22217;-72
2023/12/27 10:17:00;;;;;;;8.50;1.30;;;;;;;4.82;84.93;101040.11;111650;1260;22207;-72
2023/12/27 10:19:51;;;;;;;9.50;1.50;;;;;;;4.88;85.33;101040.17;111568;1260;22206;-72
2023/12/27 10:22:42;;;;;;;12.60;1.20;;;;;;;4.94;84.82;101038.64;111640;1246;22173;-72
2023/12/27 10:25:33;;;;;;;8.00;0.80;;;;;;;4.98;84.63;101034.14;111579;1252;22844;-73
2023/12/27 10:28:24;;;;;;;13.00;1.50;;;;;;;5.01;84.66;101035.20;111613;1261;22915;-73
2023/12/27 10:31:16;;;;;;;13.60;0.90;;;;;;;5.04;84.58;101029.61;111608;1260;22161;-72
2023/12/27 10:34:08;;;;;;;8.50;0.80;;;;;;;5.07;84.51;101029.10;111592;1259;22182;-74
2023/12/27 10:37:01;;;;;;;11.10;2.00;;;;;;;5.07;84.03;101021.17;111619;1266;22244;-72
2023/12/27 10:39:55;;;;;;;10.70;1.10;;;;;;;5.08;84.36;101016.09;111608;1260;22090;-72
2023/12/27 10:42:49;;;;;;;6.40;0.80;;;;;;;5.09;84.06;101019.63;111390;1259;22260;-74
2023/12/27 10:45:39;;;;;;;12.00;1.00;;;;;;;5.08;83.50;101017.44;111602;1256;22274;-74
2023/12/27 10:48:32;;;;;;;;;;;;;;;5.08;83.38;101016.40;110551;1259;25220;-72
2023/12/27 10:51:25;;;;;;;15.40;1.60;;;;;;;5.09;83.90;101012.61;108622;1251;24063;-72
2023/12/27 10:54:21;;;;;;;5.20;0.70;;;;;;;5.11;83.67;101010.34;111605;1260;22052;-72
2023/12/27 10:57:16;;;;;;;6.10;0.70;;;;;;;5.13;83.54;101008.17;111625;1266;22744;-72
2023/12/27 11:00:10;;;;;;;18.70;1.00;;;;;;;5.14;83.21;101009.10;111421;1260;23290;-73
2023/12/27 11:03:01;;;;;;;11.20;1.00;;;;;;;5.15;83.08;101011.70;111527;1264;22391;-74
2023/12/27 11:05:53;;;;;;;6.70;0.90;;;;;;;5.16;83.22;101011.67;111572;1260;22803;-74
2023/12/27 11:08:46;;;;;;;11.30;1.00;;;;;;;5.18;83.28;101010.93;111594;1260;22330;-73
2023/12/27 11:11:39;;;;;;;12.70;1.30;;;;;;;5.19;83.15;101012.73;111576;1266;22179;-72
2023/12/27 11:14:33;;;;;;;12.40;0.80;;;;;;;5.22;82.95;101011.64;111570;1260;22219;-73
2023/12/27 11:17:27;;;;;;;7.00;1.00;;;;;;;5.24;82.81;101010.99;111599;1263;22076;-73
2023/12/27 11:20:20;;;;;;;10.40;1.00;;;;;;;5.25;82.54;101011.05;111553;1263;22326;-72
2023/12/27 11:23:11;;;;;;;15.80;1.50;;;;;;;5.25;82.39;101009.61;111444;1260;22259;-73
2023/12/27 11:26:04;;;;;;;11.20;1.30;;;;;;;5.27;82.34;101009.98;111564;1261;22177;-73
2023/12/27 11:28:55;;;;;;;10.50;0.80;;;;;;;5.27;82.12;101001.73;111592;1259;22158;-73
2023/12/27 11:31:47;;;;;;;12.00;0.70;;;;;;;5.28;82.08;100993.57;111609;1263;22126;-74
2023/12/27 11:34:38;;;;;;;13.30;1.20;;;;;;;5.30;82.14;100992.83;111580;1260;22279;-73
2023/12/27 11:37:29;;;;;;;9.90;1.00;;;;;;;5.32;81.59;100994.45;111576;1259;22179;-73
2023/12/27 11:40:35;;;;;;;7.20;0.90;;;;;;;5.32;81.63;100996.98;111612;1259;22666;-72
2023/12/27 11:43:27;;;;;;;10.10;0.80;;;;;;;5.33;81.43;100993.80;111441;1264;22104;-71
2023/12/27 11:46:26;;;;;;;6.50;0.70;;;;;;;5.35;81.28;100992.34;111440;1253;22344;-72
2023/12/27 11:49:23;;;;;;;8.90;0.90;;;;;;;5.35;81.27;100990.99;111631;1260;22207;-72
2023/12/27 11:52:14;;;;;;;9.60;0.90;;;;;;;5.36;81.14;100987.72;111617;1260;22268;-72
2023/12/27 11:55:18;;;;;;;9.90;0.80;;;;;;;5.36;81.02;100991.67;111652;1263;22175;-73
2023/12/27 11:58:09;;;;;;;12.10;0.80;;;;;;;5.36;80.85;100987.09;111619;1261;22144;-74
2023/12/27 12:01:24;;;;;;;10.80;0.80;;;;;;;5.36;80.64;100989.79;111589;1266;22278;-72
2023/12/27 12:04:44;;;;;;;9.80;1.00;;;;;;;5.35;80.62;100981.41;111572;1260;22991;-72
2023/12/27 12:08:02;;;;;;;11.70;1.40;;;;;;;5.35;80.85;100978.73;111633;1260;23308;-74
2023/12/27 12:14:00;;;;;;;5.70;0.80;;;;;;;5.38;80.61;100969.02;104950;1303;543016;-72
2023/12/27 12:16:52;;;;;;;8.70;0.90;;;;;;;5.35;80.37;100965.35;107251;1283;22561;-72
2023/12/27 12:19:43;;;;;;;12.20;1.00;;;;;;;5.35;80.42;100957.29;108142;1271;23272;-72
2023/12/27 12:22:35;;;;;;;10.60;0.80;;;;;;;5.35;80.13;100953.34;108092;1269;22530;-72
2023/12/27 12:25:27;;;;;;;5.60;1.00;;;;;;;5.34;80.04;100950.98;107812;1276;24238;-71
2023/12/27 12:28:18;;;;;;;11.40;0.70;;;;;;;5.32;79.88;100950.16;107831;1267;132190;-72
2023/12/27 12:31:09;;;;;;;6.90;0.70;;;;;;;5.31;79.80;100947.87;108112;1267;22623;-72
2023/12/27 12:34:00;;;;;;;7.50;0.60;;;;;;;5.29;79.85;100949.02;107967;1274;22691;-72
2023/12/27 12:36:51;;;;;;;7.60;0.80;;;;;;;5.28;79.82;100948.40;107843;1274;22526;-72
2023/12/27 12:39:42;;;;;;;13.00;1.00;;;;;;;5.28;79.90;100950.40;107850;1265;24167;-72
2023/12/27 12:42:34;;;;;;;8.30;1.10;;;;;;;5.29;80.13;100953.86;107747;1274;22964;-72
2023/12/27 12:45:25;;;;;;;9.30;1.00;;;;;;;5.27;80.01;100956.17;107837;1272;24217;-73
2023/12/27 12:48:17;;;;;;;9.60;0.90;;;;;;;5.27;80.02;100956.52;107792;1273;23111;-72
2023/12/27 12:51:17;;;;;;;10.50;0.50;;;;;;;5.26;79.84;100956.45;107788;1268;22596;-72
2023/12/27 12:54:08;;;;;;;7.20;0.60;;;;;;;5.24;79.64;100951.56;107745;1267;22778;-73
2023/12/27 12:57:01;;;;;;;14.60;2.00;;;;;;;5.23;79.57;100944.88;107927;1267;22527;-73
2023/12/27 12:59:52;;;;;;;12.10;1.40;;;;;;;5.23;79.63;100935.71;107687;1271;22646;-72
2023/12/27 13:02:42;;;;;;;19.50;2.80;;;;;;;5.23;79.68;100933.58;108026;1255;22690;-72
2023/12/27 13:05:34;;;;;;;23.00;4.10;;;;;;;5.22;79.56;100935.40;107890;1269;22644;-72
2023/12/27 13:08:26;;;;;;;19.20;2.10;;;;;;;5.21;79.56;100930.05;107824;1274;25333;-73
2023/12/27 13:11:17;;;;;;;12.80;1.20;;;;;;;5.21;79.43;100932.50;107827;1271;24362;-73
2023/12/27 13:14:08;;;;;;;11.80;1.10;;;;;;;5.19;78.93;100934.11;107852;1273;23203;-72
2023/12/27 13:17:00;;;;;;;12.40;1.30;;;;;;;5.18;78.88;100930.42;107852;1271;24223;-72
2023/12/27 13:19:50;;;;;;;6.40;1.00;;;;;;;5.17;78.89;100937.09;107997;1269;22546;-73
2023/12/27 13:22:42;;;;;;;7.60;1.00;;;;;;;5.16;78.98;100937.75;107852;1268;23073;-71
2023/12/27 13:25:33;;;;;;;10.60;1.00;;;;;;;5.14;78.99;100940.39;107990;1268;22693;-72